aviador You're here:

KSHM Decoded Metar

in
Report Time2017-09-20 18:58:00
UTC Time2017-09-20 20:13:38
Flight Rules Old
Wind170° at 16 Gusting to 24 kt
W.Rank170° ranks 7
Current wind is above 170° avg. (7.9)
Visibility9999 m
Phenomena:N/A
Clouds:N/A
Expected CloudBase > 7,600 ft AGL from Temp-Dew spread
CeilingNone
Temp16°C
Dew Point-3°C (27% RH)
AAT7.9°C
QNH1018 hPa
Raw Report
KSHM 201858Z AUTO 17016G24KT 10SM CLR 16/M03 A3005 RMK AO2 SLP142
T01621035 $=

Extra information for KSHM:More info

Social comments